Stations météo

réclame
Mon MeteoGroup
Mannheim City Airport, Allemagne (10730): Température de l'air & dewpoint: 10.11.2018 00:00:00 - 16.11.2018 00:00:00 (CET)Mannheim City Airport, Allemagne (10730): Vitesse du vent: 10.11.2018 00:00:00 - 16.11.2018 00:00:00 (CET)Mannheim City Airport, Allemagne (10730): Direction du vent: 10.11.2018 00:00:00 - 16.11.2018 00:00:00 (CET)Mannheim City Airport, Allemagne (10730): visibility: 10.11.2018 00:00:00 - 16.11.2018 00:00:00 (CET)
Date & Time tt [°C] td [°C] ff [km/h] ff [knt] dd vv [km]
16.11.2018 00:00:00 - - - - - -
15.11.2018 23:00:00 - - - - - -
15.11.2018 22:00:00 - - - - - -
15.11.2018 21:00:00 6,0 4,0 4 2 - 10
15.11.2018 20:00:00 6,0 4,0 5 3 - 10
15.11.2018 19:00:00 6,0 4,0 5 3 - 10
15.11.2018 18:00:00 6,0 5,0 5 3 - 10
15.11.2018 17:00:00 6,0 5,0 8 4 ESE 10
15.11.2018 16:00:00 7,0 5,0 5 3 - 10
15.11.2018 15:00:00 7,0 5,0 5 3 - 10
15.11.2018 14:00:00 7,0 5,0 5 3 - 10
15.11.2018 13:00:00 7,0 5,0 4 2 - 10
15.11.2018 12:00:00 7,0 5,0 4 2 - 10
15.11.2018 11:00:00 7,0 5,0 5 3 E 9
15.11.2018 10:00:00 7,0 5,0 4 2 - 8
15.11.2018 09:00:00 7,0 6,0 2 1 - 7
15.11.2018 08:00:00 7,0 6,0 9 5 E 6
15.11.2018 07:00:00 7,0 6,0 8 4 E 5
15.11.2018 06:00:00 7,0 6,0 8 4 E 7
15.11.2018 05:00:00 - - - - - -
15.11.2018 04:00:00 - - - - - -
15.11.2018 03:00:00 - - - - - -
15.11.2018 02:00:00 - - - - - -
15.11.2018 01:00:00 - - - - - -
15.11.2018 00:00:00 - - - - - -
14.11.2018 23:00:00 7,0 7,0 4 2 - 7
14.11.2018 22:00:00 7,0 7,0 4 2 - 5
14.11.2018 21:00:00 7,0 7,0 2 1 - 1,6
14.11.2018 20:00:00 6,0 6,0 0 0 N 0,6
14.11.2018 19:00:00 6,0 6,0 8 4 N 0,5
14.11.2018 18:00:00 7,0 7,0 8 4 N 0,5
14.11.2018 17:00:00 6,0 6,0 8 4 NNW 0,4
14.11.2018 16:00:00 7,0 7,0 8 4 NNE 1,1
14.11.2018 15:00:00 7,0 7,0 11 6 N 5
14.11.2018 14:00:00 8,0 7,0 11 6 N 5
14.11.2018 13:00:00 7,0 7,0 4 2 - 1,0
14.11.2018 12:00:00 6,0 6,0 9 5 NNE 0,7
14.11.2018 11:00:00 6,0 6,0 5 3 - 0,4
14.11.2018 10:00:00 5,0 5,0 0 0 N 0,3
14.11.2018 09:00:00 5,0 5,0 4 2 - 0,3
14.11.2018 08:00:00 4,0 4,0 5 3 - 0,4
14.11.2018 07:00:00 5,0 5,0 0 0 N 0,2
14.11.2018 06:00:00 4,0 4,0 0 0 N 0,3
14.11.2018 05:00:00 - - - - - -
14.11.2018 04:00:00 - - - - - -
14.11.2018 03:00:00 - - - - - -
14.11.2018 02:00:00 - - - - - -
14.11.2018 01:00:00 - - - - - -
14.11.2018 00:00:00 - - - - - -
13.11.2018 23:00:00 - - - - - -
13.11.2018 22:00:00 - - - - - -
13.11.2018 21:00:00 8,0 7,0 5 3 SSE 10
13.11.2018 20:00:00 10,0 8,0 8 4 S 10
13.11.2018 19:00:00 11,0 7,0 8 4 SSW 10
13.11.2018 18:00:00 12,0 8,0 4 2 - 10
13.11.2018 17:00:00 13,0 8,0 8 4 SSW 10
13.11.2018 16:00:00 14,0 7,0 13 7 WSW 10
13.11.2018 15:00:00 15,0 8,0 13 7 WSW 10
13.11.2018 14:00:00 14,0 8,0 13 7 SSW 10
13.11.2018 13:00:00 13,0 9,0 13 7 SSW 10
13.11.2018 12:00:00 12,0 10,0 9 5 SSW 10
13.11.2018 11:00:00 12,0 10,0 8 4 SSW 10
13.11.2018 10:00:00 12,0 10,0 16 9 SSW 10
13.11.2018 09:00:00 12,0 11,0 15 8 S 10
13.11.2018 08:00:00 12,0 11,0 11 6 SSW 7
13.11.2018 07:00:00 12,0 11,0 11 6 SSW 10
13.11.2018 06:00:00 12,0 11,0 5 3 SSW 10
13.11.2018 05:00:00 - - - - - -
13.11.2018 04:00:00 - - - - - -
13.11.2018 03:00:00 - - - - - -
13.11.2018 02:00:00 - - - - - -
13.11.2018 01:00:00 - - - - - -
13.11.2018 00:00:00 - - - - - -
12.11.2018 23:00:00 - - - - - -
12.11.2018 22:00:00 - - - - - -
12.11.2018 21:00:00 12,0 10,0 0 0 N 10
12.11.2018 20:00:00 13,0 9,0 2 1 - 10
12.11.2018 19:00:00 16,0 9,0 4 2 W 10
12.11.2018 18:00:00 16,0 9,0 8 4 SSE 10
12.11.2018 17:00:00 16,0 9,0 8 4 SSE 10
12.11.2018 16:00:00 17,0 9,0 9 5 S 10
12.11.2018 15:00:00 16,0 8,0 9 5 S 10
12.11.2018 14:00:00 16,0 8,0 9 5 S 10
12.11.2018 13:00:00 16,0 8,0 9 5 SSE 10
12.11.2018 12:00:00 16,0 8,0 13 7 SSE 10
12.11.2018 11:00:00 16,0 8,0 13 7 SSE 10
12.11.2018 10:00:00 16,0 8,0 13 7 SSE 10
12.11.2018 09:00:00 15,0 8,0 9 5 SSE 10
12.11.2018 08:00:00 15,0 8,0 11 6 S 10
12.11.2018 07:00:00 15,0 8,0 13 7 SSE 10
12.11.2018 06:00:00 15,0 8,0 11 6 S 10
12.11.2018 05:00:00 - - - - - -
12.11.2018 04:00:00 - - - - - -
12.11.2018 03:00:00 - - - - - -
12.11.2018 02:00:00 - - - - - -
12.11.2018 01:00:00 - - - - - -
12.11.2018 00:00:00 - - - - - -
11.11.2018 23:00:00 - - - - - -
11.11.2018 22:00:00 - - - - - -
11.11.2018 21:00:00 14,0 10,0 11 6 SSE 10
11.11.2018 20:00:00 14,0 9,0 11 6 SSE 10
11.11.2018 19:00:00 13,0 8,0 5 3 - 10
11.11.2018 18:00:00 14,0 8,0 8 4 SSE 10
11.11.2018 17:00:00 16,0 8,0 9 5 SSE 10
11.11.2018 16:00:00 17,0 8,0 15 8 SSE 10
11.11.2018 15:00:00 17,0 8,0 18 10 S 10
11.11.2018 14:00:00 17,0 8,0 15 8 S 10
11.11.2018 13:00:00 17,0 9,0 16 9 S 10
11.11.2018 12:00:00 15,0 11,0 16 9 SSE 10
11.11.2018 11:00:00 14,0 11,0 13 7 S 10
11.11.2018 10:00:00 12,0 10,0 15 8 SSE 10
11.11.2018 09:00:00 11,0 10,0 13 7 SSE 10
11.11.2018 08:00:00 11,0 10,0 8 4 S 10
11.11.2018 07:00:00 - - - - - -
11.11.2018 06:00:00 - - - - - -
11.11.2018 05:00:00 - - - - - -
11.11.2018 04:00:00 - - - - - -
11.11.2018 03:00:00 - - - - - -
11.11.2018 02:00:00 - - - - - -
11.11.2018 01:00:00 - - - - - -
11.11.2018 00:00:00 - - - - - -
10.11.2018 23:00:00 - - - - - -
10.11.2018 22:00:00 - - - - - -
10.11.2018 21:00:00 - - - - - -
10.11.2018 20:00:00 - - - - - -
10.11.2018 19:00:00 - - - - - -
10.11.2018 18:00:00 14,0 8,0 5 3 - 10
10.11.2018 17:00:00 13,0 9,0 9 5 SSE 10
10.11.2018 16:00:00 13,0 9,0 9 5 SSW 10
10.11.2018 15:00:00 13,0 8,0 9 5 SSE 10
10.11.2018 14:00:00 13,0 8,0 9 5 SSE 10
10.11.2018 13:00:00 13,0 7,0 11 6 S 10
10.11.2018 12:00:00 12,0 7,0 11 6 SSW 10
10.11.2018 11:00:00 12,0 7,0 11 6 S 10
10.11.2018 10:00:00 11,0 7,0 11 6 S 10
10.11.2018 09:00:00 10,0 7,0 8 4 S 10
10.11.2018 08:00:00 10,0 7,0 8 4 SE 10
10.11.2018 07:00:00 - - - - - -
10.11.2018 06:00:00 - - - - - -
10.11.2018 05:00:00 - - - - - -
10.11.2018 04:00:00 - - - - - -
10.11.2018 03:00:00 - - - - - -
10.11.2018 02:00:00 - - - - - -
10.11.2018 01:00:00 - - - - - -
10.11.2018 00:00:00 - - - - - -

tt = Température de l'air
td = dewpoint
ff = Vitesse du vent
dd = Direction du vent
vv = visibility

stations d'obs. à proximité